Gure Gaskuna — ECNV — position and weather

sailwx.info

Track history (hours):
 
Tides and Currents Weather Stations Pressure Air Temp Water Temp Dewpoint Dewpoint Depression Visibility Wind Speed Wind Dir Waves Ship Positions

Gure Gaskuna

Last reported at 2017-Dec-12 06:57 UTC. Time now 2017-Dec-15 12:01 UTC.
Position N 44°46' W 001°40'.

Length 39 m.

Type: Other ship. MMSI: 224404000.

Date/timePositionNaut miles runAvg speedWind from/ knotsBaromVisibWave heightAir tempDewpointWater temp
2017-Dec-12 06:57N 44°46' W 001°40'4 8.0
2017-Dec-12 06:28N 44°42' W 001°41'510.0
2017-Dec-12 05:58N 44°37' W 001°42'510.1
2017-Dec-12 05:29N 44°32' W 001°43'5 9.8
2017-Dec-12 05:00N 44°28' W 001°46'5 9.9
2017-Dec-12 04:29N 44°24' W 001°50'7 9.6
2017-Dec-12 03:49N 44°18' W 001°54'3 9.5
2017-Dec-12 03:30N 44°15' W 001°55'5 9.4
2017-Dec-12 03:00N 44°11' W 001°58'5 9.2
2017-Dec-12 02:30N 44°06' W 002°00'5 9.1
2017-Dec-12 02:00N 44°02' W 002°03'4 8.9
2017-Dec-12 01:30N 43°58' W 002°05'4 8.7
2017-Dec-12 01:00N 43°54' W 002°07'4 8.6
2017-Dec-12 00:30N 43°50' W 002°09'4 8.4
2017-Dec-12 00:00N 43°46' W 002°11'4 8.3
2017-Dec-11 23:30N 43°42' W 002°13'4 8.7
2017-Dec-11 23:00N 43°38' W 002°15'4 8.6
2017-Dec-11 22:30N 43°34' W 002°17'4 8.8
2017-Dec-11 22:00N 43°30' W 002°19'5 9.2
2017-Dec-11 21:30N 43°26' W 002°21'5 9.3
2017-Dec-11 21:00N 43°22' W 002°25'2 0.1
2017-Dec-10 15:23N 43°20' W 002°24'3 7.2
2017-Dec-10 15:00N 43°22' W 002°22'5 9.7
2017-Dec-10 14:30N 43°25' W 002°17'5 9.8
2017-Dec-10 14:00N 43°28' W 002°12'5 9.6
2017-Dec-10 13:30N 43°32' W 002°07'5 9.3
2017-Dec-10 13:00N 43°35' W 002°03'5 9.4
2017-Dec-10 12:30N 43°39' W 001°59'5 9.2
2017-Dec-10 12:00N 43°42' W 001°54'4 9.0
2017-Dec-10 11:30N 43°45' W 001°50'4 9.0
2017-Dec-10 11:00N 43°48' W 001°45'5 9.0
2017-Dec-10 10:30N 43°52' W 001°41'1 2.1
2017-Dec-10 10:00N 43°53' W 001°41'2 3.8
2017-Dec-10 09:30N 43°54' W 001°41'2 3.8
2017-Dec-10 09:00N 43°56' W 001°41'2 3.8
2017-Dec-10 08:30N 43°58' W 001°41'2 4.2
2017-Dec-10 08:00N 44°00' W 001°42'2 3.4
2017-Dec-10 07:30N 44°01' W 001°44'2 3.0
2017-Dec-10 07:00N 43°59' W 001°45'2 3.8
2017-Dec-10 06:30N 43°57' W 001°45'2 3.8
2017-Dec-10 06:00N 43°55' W 001°46'2 3.8
2017-Dec-10 05:30N 43°53' W 001°46'2 3.7
2017-Dec-10 05:00N 43°52' W 001°48'2 3.8
2017-Dec-10 04:30N 43°50' W 001°50'2 4.5
2017-Dec-10 04:00N 43°49' W 001°52'3 5.2
2017-Dec-10 03:30N 43°49' W 001°55'1 2.5
2017-Dec-10 03:00N 43°51' W 001°55'2 3.7
2017-Dec-10 02:30N 43°52' W 001°53'2 3.6
2017-Dec-10 02:00N 43°54' W 001°52'2 3.6
2017-Dec-10 01:30N 43°55' W 001°50'2 3.4
2017-Dec-10 01:00N 43°56' W 001°49'2 3.5
2017-Dec-10 00:30N 43°58' W 001°47'2 3.5
2017-Dec-10 00:00N 43°59' W 001°46'2 3.3
2017-Dec-09 23:30N 44°01' W 001°45'2 4.4
2017-Dec-09 23:00N 44°02' W 001°47'2 3.7
2017-Dec-09 22:30N 44°04' W 001°47'2 3.7
2017-Dec-09 22:00N 44°06' W 001°47'2 3.8
2017-Dec-09 21:30N 44°08' W 001°46'2 3.8
2017-Dec-09 21:00N 44°10' W 001°46'2 3.8
2017-Dec-09 20:30N 44°12' W 001°46'2 3.8
2017-Dec-09 20:00N 44°14' W 001°46'2 4.3
2017-Dec-09 19:30N 44°16' W 001°46'1 2.2
2017-Dec-09 19:00N 44°17' W 001°46'2 3.7
2017-Dec-09 18:29N 44°19' W 001°45'2 3.8
2017-Dec-09 18:00N 44°20' W 001°44'1 2.9
2017-Dec-09 17:29N 44°21' W 001°42'2 3.7
2017-Dec-09 17:00N 44°23' W 001°41'2 3.8
2017-Dec-09 16:30N 44°25' W 001°41'2 3.8
2017-Dec-09 16:00N 44°27' W 001°41'2 4.2
2017-Dec-09 15:30N 44°29' W 001°41'2 4.1
2017-Dec-09 15:00N 44°31' W 001°40'2 3.7
2017-Dec-09 14:29N 44°33' W 001°40'2 3.8
2017-Dec-09 13:59N 44°35' W 001°40'2 3.8
2017-Dec-09 13:28N 44°37' W 001°40'2 3.8
2017-Dec-09 13:00N 44°39' W 001°40'2 3.8
2017-Dec-09 12:30N 44°41' W 001°40'2 3.8
2017-Dec-09 11:52N 44°43' W 001°40'12 3.4
2017-Dec-09 08:14N 44°55' W 001°35'  
2017-Dec-04 10:24N 44°41' W 001°40'1 1.5
2017-Dec-04 10:00N 44°40' W 001°40'2 3.8
2017-Dec-04 09:30N 44°38' W 001°40'3 3.8
2017-Dec-04 08:51N 44°36' W 001°40'1 3.8
2017-Dec-04 08:30N 44°35' W 001°40'2 3.8
2017-Dec-04 07:57N 44°32' W 001°40'2 3.8
2017-Dec-04 07:29N 44°31' W 001°41'3 6.5
2017-Dec-04 07:00N 44°28' W 001°43'510.3
2017-Dec-04 06:28N 44°23' W 001°47'610.1
2017-Dec-04 05:49N 44°18' W 001°51'310.0
2017-Dec-04 05:30N 44°15' W 001°53'5 9.9
2017-Dec-04 05:00N 44°10' W 001°56'5 9.9
2017-Dec-04 04:30N 44°06' W 001°58'5 9.7
2017-Dec-04 04:00N 44°01' W 002°01'5 9.7
2017-Dec-04 03:30N 43°57' W 002°04'5 9.8
2017-Dec-04 03:00N 43°52' W 002°06'5 9.8
2017-Dec-04 02:30N 43°48' W 002°09'5 9.9
2017-Dec-04 02:00N 43°43' W 002°11'5 9.9
2017-Dec-04 01:30N 43°38' W 002°14'5 9.9
2017-Dec-04 01:00N 43°34' W 002°17'5 9.8
2017-Dec-04 00:30N 43°29' W 002°19'5 9.7
2017-Dec-04 00:00N 43°25' W 002°22'5 9.8
2017-Dec-03 23:30N 43°20' W 002°24'1 0.0
2017-Dec-03 10:50N 43°20' W 002°25'2 4.8
2017-Dec-03 10:30N 43°21' W 002°24'510.0
2017-Dec-03 10:00N 43°26' W 002°23'510.2
2017-Dec-03 09:31N 43°31' W 002°22'510.0
2017-Dec-03 09:01N 43°36' W 002°21'510.0
2017-Dec-03 08:30N 43°41' W 002°19'510.1
2017-Dec-03 08:00N 43°46' W 002°17'510.2
2017-Dec-03 07:31N 43°51' W 002°16'510.3
2017-Dec-03 07:00N 43°56' W 002°14'510.4
2017-Dec-03 06:30N 44°01' W 002°12'510.4
2017-Dec-03 06:01N 44°06' W 002°11'510.4
2017-Dec-03 05:30N 44°11' W 002°09'510.3
2017-Dec-03 05:00N 44°16' W 002°07'510.2
2017-Dec-03 04:30N 44°21' W 002°06'  
Track history (hours):
 
Tides and Currents Weather Stations Pressure Air Temp Water Temp Dewpoint Dewpoint Depression Visibility Wind Speed Wind Dir Waves Ship Positions

Gure Gaskuna

Last reported at 2017-Dec-12 06:57 UTC. Time now 2017-Dec-15 12:01 UTC.
Position N 44°46' W 001°40'.

Length 39 m.

Type: Other ship. MMSI: 224404000.

Date/timePositionNaut miles runAvg speedWind from/ knotsBaromVisibWave heightAir tempDewpointWater temp
2017-Dec-12 06:57N 44°46' W 001°40'4 8.0
2017-Dec-12 06:28N 44°42' W 001°41'510.0
2017-Dec-12 05:58N 44°37' W 001°42'510.1
2017-Dec-12 05:29N 44°32' W 001°43'5 9.8
2017-Dec-12 05:00N 44°28' W 001°46'5 9.9
2017-Dec-12 04:29N 44°24' W 001°50'7 9.6
2017-Dec-12 03:49N 44°18' W 001°54'3 9.5
2017-Dec-12 03:30N 44°15' W 001°55'5 9.4
2017-Dec-12 03:00N 44°11' W 001°58'5 9.2
2017-Dec-12 02:30N 44°06' W 002°00'5 9.1
2017-Dec-12 02:00N 44°02' W 002°03'4 8.9
2017-Dec-12 01:30N 43°58' W 002°05'4 8.7
2017-Dec-12 01:00N 43°54' W 002°07'4 8.6
2017-Dec-12 00:30N 43°50' W 002°09'4 8.4
2017-Dec-12 00:00N 43°46' W 002°11'4 8.3
2017-Dec-11 23:30N 43°42' W 002°13'4 8.7
2017-Dec-11 23:00N 43°38' W 002°15'4 8.6
2017-Dec-11 22:30N 43°34' W 002°17'4 8.8
2017-Dec-11 22:00N 43°30' W 002°19'5 9.2
2017-Dec-11 21:30N 43°26' W 002°21'5 9.3
2017-Dec-11 21:00N 43°22' W 002°25'2 0.1
2017-Dec-10 15:23N 43°20' W 002°24'3 7.2
2017-Dec-10 15:00N 43°22' W 002°22'5 9.7
2017-Dec-10 14:30N 43°25' W 002°17'5 9.8
2017-Dec-10 14:00N 43°28' W 002°12'5 9.6
2017-Dec-10 13:30N 43°32' W 002°07'5 9.3
2017-Dec-10 13:00N 43°35' W 002°03'5 9.4
2017-Dec-10 12:30N 43°39' W 001°59'5 9.2
2017-Dec-10 12:00N 43°42' W 001°54'4 9.0
2017-Dec-10 11:30N 43°45' W 001°50'4 9.0
2017-Dec-10 11:00N 43°48' W 001°45'5 9.0
2017-Dec-10 10:30N 43°52' W 001°41'1 2.1
2017-Dec-10 10:00N 43°53' W 001°41'2 3.8
2017-Dec-10 09:30N 43°54' W 001°41'2 3.8
2017-Dec-10 09:00N 43°56' W 001°41'2 3.8
2017-Dec-10 08:30N 43°58' W 001°41'2 4.2
2017-Dec-10 08:00N 44°00' W 001°42'2 3.4
2017-Dec-10 07:30N 44°01' W 001°44'2 3.0
2017-Dec-10 07:00N 43°59' W 001°45'2 3.8
2017-Dec-10 06:30N 43°57' W 001°45'2 3.8
2017-Dec-10 06:00N 43°55' W 001°46'2 3.8
2017-Dec-10 05:30N 43°53' W 001°46'2 3.7
2017-Dec-10 05:00N 43°52' W 001°48'2 3.8
2017-Dec-10 04:30N 43°50' W 001°50'2 4.5
2017-Dec-10 04:00N 43°49' W 001°52'3 5.2
2017-Dec-10 03:30N 43°49' W 001°55'1 2.5
2017-Dec-10 03:00N 43°51' W 001°55'2 3.7
2017-Dec-10 02:30N 43°52' W 001°53'2 3.6
2017-Dec-10 02:00N 43°54' W 001°52'2 3.6
2017-Dec-10 01:30N 43°55' W 001°50'2 3.4
2017-Dec-10 01:00N 43°56' W 001°49'2 3.5
2017-Dec-10 00:30N 43°58' W 001°47'2 3.5
2017-Dec-10 00:00N 43°59' W 001°46'2 3.3
2017-Dec-09 23:30N 44°01' W 001°45'2 4.4
2017-Dec-09 23:00N 44°02' W 001°47'2 3.7
2017-Dec-09 22:30N 44°04' W 001°47'2 3.7
2017-Dec-09 22:00N 44°06' W 001°47'2 3.8
2017-Dec-09 21:30N 44°08' W 001°46'2 3.8
2017-Dec-09 21:00N 44°10' W 001°46'2 3.8
2017-Dec-09 20:30N 44°12' W 001°46'2 3.8
2017-Dec-09 20:00N 44°14' W 001°46'2 4.3
2017-Dec-09 19:30N 44°16' W 001°46'1 2.2
2017-Dec-09 19:00N 44°17' W 001°46'2 3.7
2017-Dec-09 18:29N 44°19' W 001°45'2 3.8
2017-Dec-09 18:00N 44°20' W 001°44'1 2.9
2017-Dec-09 17:29N 44°21' W 001°42'2 3.7
2017-Dec-09 17:00N 44°23' W 001°41'2 3.8
2017-Dec-09 16:30N 44°25' W 001°41'2 3.8
2017-Dec-09 16:00N 44°27' W 001°41'2 4.2
2017-Dec-09 15:30N 44°29' W 001°41'2 4.1
2017-Dec-09 15:00N 44°31' W 001°40'2 3.7
2017-Dec-09 14:29N 44°33' W 001°40'2 3.8
2017-Dec-09 13:59N 44°35' W 001°40'2 3.8
2017-Dec-09 13:28N 44°37' W 001°40'2 3.8
2017-Dec-09 13:00N 44°39' W 001°40'2 3.8
2017-Dec-09 12:30N 44°41' W 001°40'2 3.8
2017-Dec-09 11:52N 44°43' W 001°40'12 3.4
2017-Dec-09 08:14N 44°55' W 001°35'  
2017-Dec-04 10:24N 44°41' W 001°40'1 1.5
2017-Dec-04 10:00N 44°40' W 001°40'2 3.8
2017-Dec-04 09:30N 44°38' W 001°40'3 3.8
2017-Dec-04 08:51N 44°36' W 001°40'1 3.8
2017-Dec-04 08:30N 44°35' W 001°40'2 3.8
2017-Dec-04 07:57N 44°32' W 001°40'2 3.8
2017-Dec-04 07:29N 44°31' W 001°41'3 6.5
2017-Dec-04 07:00N 44°28' W 001°43'510.3
2017-Dec-04 06:28N 44°23' W 001°47'610.1
2017-Dec-04 05:49N 44°18' W 001°51'310.0
2017-Dec-04 05:30N 44°15' W 001°53'5 9.9
2017-Dec-04 05:00N 44°10' W 001°56'5 9.9
2017-Dec-04 04:30N 44°06' W 001°58'5 9.7
2017-Dec-04 04:00N 44°01' W 002°01'5 9.7
2017-Dec-04 03:30N 43°57' W 002°04'5 9.8
2017-Dec-04 03:00N 43°52' W 002°06'5 9.8
2017-Dec-04 02:30N 43°48' W 002°09'5 9.9
2017-Dec-04 02:00N 43°43' W 002°11'5 9.9
2017-Dec-04 01:30N 43°38' W 002°14'5 9.9
2017-Dec-04 01:00N 43°34' W 002°17'5 9.8
2017-Dec-04 00:30N 43°29' W 002°19'5 9.7
2017-Dec-04 00:00N 43°25' W 002°22'5 9.8
2017-Dec-03 23:30N 43°20' W 002°24'1 0.0
2017-Dec-03 10:50N 43°20' W 002°25'2 4.8
2017-Dec-03 10:30N 43°21' W 002°24'510.0
2017-Dec-03 10:00N 43°26' W 002°23'510.2
2017-Dec-03 09:31N 43°31' W 002°22'510.0
2017-Dec-03 09:01N 43°36' W 002°21'510.0
2017-Dec-03 08:30N 43°41' W 002°19'510.1
2017-Dec-03 08:00N 43°46' W 002°17'510.2
2017-Dec-03 07:31N 43°51' W 002°16'510.3
2017-Dec-03 07:00N 43°56' W 002°14'510.4
2017-Dec-03 06:30N 44°01' W 002°12'510.4
2017-Dec-03 06:01N 44°06' W 002°11'510.4
2017-Dec-03 05:30N 44°11' W 002°09'510.3
2017-Dec-03 05:00N 44°16' W 002°07'510.2
2017-Dec-03 04:30N 44°21' W 002°06'  

Dump ship's entire track history